Time;durP1;ratioP1;P1;durP2;ratioP2;P2;SDS_P1;SDS_P2;PMS_P1;PMS_P2;Temp;Humidity;BMP_temperature;BMP_pressure;BME280_temperature;BME280_humidity;BME280_pressure;Samples;Min_cycle;Max_cycle;Signal;HPM_P1;HPM_P2
2021/12/07 00:01:54;;;;;;;;;2.00;2.00;;;;;10.26;63.96;100882.00;5022625;28;45445;-72
2021/12/07 00:04:20;;;;;;;;;1.00;1.00;;;;;10.27;63.16;100910.41;5022035;28;46287;-71
2021/12/07 00:06:45;;;;;;;;;1.50;1.00;;;;;10.28;63.04;100914.00;5022513;28;45263;-72
2021/12/07 00:09:15;;;;;;;;;2.00;2.00;;;;;10.28;63.18;100914.00;5022030;28;45284;-72
2021/12/07 00:11:40;;;;;;;;;2.00;2.00;;;;;10.29;63.29;100913.94;5022311;28;45402;-72
2021/12/07 00:14:12;;;;;;;;;1.25;1.00;;;;;10.30;63.52;100904.13;5022004;28;46145;-72
2021/12/07 00:16:39;;;;;;;;;4.25;0.75;;;;;10.29;62.84;100921.94;5022349;28;45330;-72
2021/12/07 00:19:05;;;;;;;;;1.00;1.00;;;;;10.30;63.35;100909.47;5022071;28;45390;-72
2021/12/07 00:21:30;;;;;;;;;1.00;1.00;;;;;10.32;62.75;100908.56;5021894;28;45582;-72
2021/12/07 00:23:56;;;;;;;;;2.00;0.50;;;;;10.23;63.01;100886.56;5021626;28;46158;-72
2021/12/07 00:26:21;;;;;;;;;1.75;1.00;;;;;10.32;62.63;100900.56;5021394;28;45315;-71
2021/12/07 00:28:49;;;;;;;;;1.00;1.00;;;;;10.30;63.21;100904.13;5021471;28;45338;-72
2021/12/07 00:31:24;;;;;;;;;2.75;0.50;;;;;10.32;62.66;100905.00;5022135;28;45472;-72
2021/12/07 00:34:07;;;;;;;;;0.00;0.00;;;;;10.25;63.21;100896.25;5021587;28;46348;-72
2021/12/07 00:36:37;;;;;;;;;0.25;0.25;;;;;10.30;62.86;100912.16;5022088;28;45317;-72
2021/12/07 00:39:07;;;;;;;;;1.00;1.00;;;;;10.32;62.42;100918.34;5021557;28;45390;-72
2021/12/07 00:41:33;;;;;;;;;1.75;1.50;;;;;10.30;63.14;100913.00;5021855;28;45260;-72
2021/12/07 00:44:01;;;;;;;;;3.75;1.50;;;;;10.24;62.84;100909.63;5021857;28;45414;-72
2021/12/07 00:46:27;;;;;;;;;1.75;1.75;;;;;10.34;62.28;100928.06;5021740;28;45659;-72
2021/12/07 00:48:53;;;;;;;;;2.00;0.75;;;;;10.33;62.64;100925.44;5021725;28;45464;-72
2021/12/07 00:51:18;;;;;;;;;0.25;0.25;;;;;10.32;62.86;100921.00;5021419;28;45473;-72
2021/12/07 00:53:44;;;;;;;;;0.75;0.75;;;;;10.31;62.43;100917.44;5021193;28;45402;-72
2021/12/07 00:56:09;;;;;;;;;1.00;0.25;;;;;10.31;62.77;100920.09;5021538;28;45306;-72
2021/12/07 00:58:35;;;;;;;;;0.00;0.00;;;;;10.34;62.21;100921.81;5021588;28;45391;-71
2021/12/07 01:01:13;;;;;;;;;4.00;1.25;;;;;10.32;62.37;100921.00;5021573;28;45267;-71
2021/12/07 01:03:39;;;;;;;;;0.00;0.00;;;;;10.31;62.00;100933.44;5021296;28;46527;-72
2021/12/07 01:08:53;;;;;;;;;1.00;0.50;;;;;10.27;62.16;100930.91;5021371;28;45390;-72
2021/12/07 01:25:27;;;;;;;;;1.75;0.00;;;;;10.15;61.12;100932.13;5020919;28;46607;-71
2021/12/07 01:27:55;;;;;;;;;0.50;0.00;;;;;10.17;61.39;100927.59;5020954;28;45641;-72
2021/12/07 01:30:35;;;;;;;;;0.25;0.25;;;;;10.16;61.47;100913.41;5021235;28;45388;-72
2021/12/07 01:33:18;;;;;;;;;1.00;0.00;;;;;10.20;61.20;100919.53;5020766;28;45354;-71
2021/12/07 01:40:58;;;;;;;;;0.00;0.00;;;;;10.23;61.22;100930.13;5020798;28;45430;-71
2021/12/07 02:01:47;;;;;;;;;0.00;0.00;;;;;10.14;61.31;100938.34;5009669;28;45387;-72
2021/12/07 02:04:12;;;;;;;;;2.50;0.00;;;;;10.11;61.66;100936.66;5019971;28;45512;-72
2021/12/07 02:06:38;;;;;;;;;0.00;0.00;;;;;10.14;61.60;100941.03;5020743;28;46078;-72
2021/12/07 02:09:05;;;;;;;;;0.00;0.00;;;;;10.13;61.70;100941.97;5020070;28;45229;-72
2021/12/07 02:11:31;;;;;;;;;0.00;0.00;;;;;10.11;61.45;100938.47;5020674;28;45381;-72
2021/12/07 02:16:25;;;;;;;;;0.00;0.00;;;;;10.08;61.85;100944.75;5020144;28;45927;-71
2021/12/07 02:18:50;;;;;;;;;2.00;0.25;;;;;10.08;61.78;100947.41;5020317;28;45581;-72
2021/12/07 02:21:19;;;;;;;;;0.00;0.00;;;;;10.10;61.95;100955.38;5020563;28;45295;-72
2021/12/07 02:23:45;;;;;;;;;1.00;0.00;;;;;10.10;61.51;100947.38;5020025;28;45375;-72
2021/12/07 02:26:10;;;;;;;;;0.00;0.00;;;;;10.11;61.64;100954.47;5020009;28;46243;-72
2021/12/07 02:28:39;;;;;;;;;1.00;1.00;;;;;10.10;61.56;100958.03;5020108;28;45325;-72
2021/12/07 02:31:05;;;;;;;;;0.00;0.00;;;;;10.08;61.66;100957.22;5020410;28;45331;-72
2021/12/07 02:33:31;;;;;;;;;0.00;0.00;;;;;10.06;61.34;100967.94;5019779;28;45295;-72
2021/12/07 02:35:57;;;;;;;;;0.00;0.00;;;;;10.01;61.69;100953.84;5019849;28;45967;-72
2021/12/07 02:38:22;;;;;;;;;0.50;0.25;;;;;10.02;61.21;100958.25;5020251;28;45402;-71
2021/12/07 02:40:48;;;;;;;;;2.25;0.00;;;;;9.95;61.25;100951.31;5019697;28;45451;-72
2021/12/07 02:43:14;;;;;;;;;0.00;0.00;;;;;9.93;61.48;100956.69;5020010;28;45399;-72
2021/12/07 02:45:39;;;;;;;;;1.00;0.00;;;;;9.97;61.83;100957.50;5019675;28;46099;-72
2021/12/07 02:48:05;;;;;;;;;0.00;0.00;;;;;9.97;61.83;100944.16;5019823;28;45331;-72
2021/12/07 02:50:30;;;;;;;;;1.00;1.00;;;;;9.98;61.23;100952.13;5018905;28;45229;-72
2021/12/07 02:52:55;;;;;;;;;0.00;0.00;;;;;9.97;61.32;100945.06;5019642;28;45494;-72
2021/12/07 02:55:21;;;;;;;;;1.00;0.50;;;;;10.01;61.71;100951.19;5019625;28;46126;-72
2021/12/07 02:57:47;;;;;;;;;0.25;0.00;;;;;10.00;61.08;100947.59;5019669;28;45156;-72
2021/12/07 03:00:19;;;;;;;;;0.25;0.25;;;;;9.95;61.30;100936.19;5019969;28;45409;-72
2021/12/07 03:03:08;;;;;;;;;3.00;0.00;;;;;9.97;61.81;100945.06;5019829;28;45225;-72
2021/12/07 03:27:35;;;;;;;;;1.00;0.00;;;;;9.75;62.10;100966.03;5019255;28;45763;-72
2021/12/07 03:30:03;;;;;;;;;1.00;1.00;;;;;9.77;62.35;100969.56;5019410;28;45614;-72
2021/12/07 03:32:28;;;;;;;;;1.25;1.00;;;;;9.74;61.99;100972.31;5019578;28;45292;-72
2021/12/07 03:34:54;;;;;;;;;1.00;1.00;;;;;9.70;62.25;100975.94;5019263;28;45314;-72
2021/12/07 03:37:19;;;;;;;;;3.00;1.00;;;;;9.72;62.12;100982.13;5019115;28;45205;-72
2021/12/07 03:39:45;;;;;;;;;2.00;2.00;;;;;9.75;62.37;100984.69;5019240;28;45273;-72
2021/12/07 03:42:10;;;;;;;;;0.75;0.75;;;;;9.74;62.09;100982.97;5019349;28;45160;-72
2021/12/07 03:44:35;;;;;;;;;3.25;2.00;;;;;9.70;62.00;100980.41;5018763;28;45263;-72
2021/12/07 03:47:01;;;;;;;;;1.00;1.00;;;;;9.67;62.34;100970.69;5019311;28;47142;-71
2021/12/07 03:49:26;;;;;;;;;1.00;1.00;;;;;9.68;62.02;100959.13;5019246;28;45278;-72
2021/12/07 03:51:51;;;;;;;;;2.50;1.00;;;;;9.66;61.97;100962.75;5018942;28;45434;-72
2021/12/07 03:54:17;;;;;;;;;0.00;0.00;;;;;9.63;62.28;100969.88;5018612;28;45300;-72
2021/12/07 03:56:42;;;;;;;;;2.25;1.00;;;;;9.57;61.96;100971.84;5019095;28;45203;-71
2021/12/07 03:59:07;;;;;;;;;9.00;1.00;;;;;9.60;62.35;100975.28;5019038;28;45349;-72
2021/12/07 04:01:33;;;;;;;;;3.00;1.00;;;;;9.52;62.35;100958.66;5020372;28;45328;-72
2021/12/07 04:04:01;;;;;;;;;2.00;1.00;;;;;9.57;62.01;100963.84;5022119;28;45439;-72
2021/12/07 04:06:27;;;;;;;;;2.00;1.00;;;;;9.58;62.12;100962.94;5022495;28;46268;-72
2021/12/07 04:08:52;;;;;;;;;1.00;1.00;;;;;9.53;62.57;100952.38;5022215;28;45314;-72
2021/12/07 04:11:18;;;;;;;;;1.00;1.00;;;;;9.50;62.39;100955.13;5022566;28;45441;-71
2021/12/07 04:13:45;;;;;;;;;1.00;1.00;;;;;9.48;62.40;100948.09;5022177;28;45420;-72
2021/12/07 04:16:12;;;;;;;;;2.00;1.00;;;;;9.51;62.13;100954.22;5022306;28;47048;-72
2021/12/07 04:18:38;;;;;;;;;1.00;0.00;;;;;9.47;62.48;100963.19;5022423;28;45749;-72
2021/12/07 04:21:04;;;;;;;;;2.25;0.00;;;;;9.35;62.38;100947.50;5022423;28;45516;-72
2021/12/07 04:23:34;;;;;;;;;5.00;2.75;;;;;9.46;62.20;100964.13;5021884;28;45477;-71
2021/12/07 04:26:00;;;;;;;;;4.00;1.50;;;;;9.48;62.36;100972.94;5022231;28;45256;-72
2021/12/07 04:28:26;;;;;;;;;3.00;1.00;;;;;9.45;62.08;100955.25;5022129;28;45568;-72
2021/12/07 04:30:51;;;;;;;;;3.75;1.00;;;;;9.37;62.26;100951.00;5021542;28;45153;-72
2021/12/07 04:33:17;;;;;;;;;1.00;1.00;;;;;9.40;62.04;100969.59;5021160;28;45444;-72
2021/12/07 04:35:45;;;;;;;;;1.00;1.00;;;;;9.38;61.76;100972.28;5021824;28;45216;-72
2021/12/07 04:38:12;;;;;;;;;1.50;1.50;;;;;9.36;62.17;100968.78;5021679;28;45413;-71
2021/12/07 04:40:38;;;;;;;;;0.50;0.50;;;;;9.34;61.95;100975.94;5020902;28;45541;-72
2021/12/07 04:43:04;;;;;;;;;1.50;1.00;;;;;9.33;62.30;100967.97;5020977;28;45505;-71
2021/12/07 04:48:33;;;;;;;;;2.00;1.00;;;;;9.29;61.83;100967.19;5021205;28;45465;-71
2021/12/07 04:59:12;;;;;;;;;0.50;0.50;;;;;9.25;61.98;100953.06;5010135;28;45586;-72
2021/12/07 05:01:38;;;;;;;;;2.50;1.00;;;;;9.25;62.20;100957.50;5021573;28;45320;-71
2021/12/07 05:04:11;;;;;;;;;2.00;1.00;;;;;9.22;62.25;100955.81;5021179;28;45302;-72
2021/12/07 05:06:42;;;;;;;;;1.25;1.25;;;;;9.17;62.33;100954.13;5021395;28;46922;-72
2021/12/07 05:09:29;;;;;;;;;0.50;0.00;;;;;9.22;62.43;100960.22;5021248;28;45517;-72
2021/12/07 05:12:19;;;;;;;;;3.00;2.00;;;;;9.22;62.26;100960.22;5021277;28;45208;-72
2021/12/07 05:14:42;;;;;;;;;4.75;1.75;;;;;9.21;62.59;100955.84;5020446;28;45467;-72
2021/12/07 05:17:38;;;;;;;;;0.00;0.00;;;;;9.20;62.05;100949.59;5021443;28;46151;-72
2021/12/07 05:39:05;;;;;;;;;2.25;2.25;;;;;9.02;62.47;100972.22;5020461;28;46007;-72
2021/12/07 05:41:31;;;;;;;;;2.50;2.50;;;;;8.97;62.50;100974.13;5020654;28;45785;-72
2021/12/07 05:43:56;;;;;;;;;3.00;3.00;;;;;8.95;62.58;100969.72;5020812;28;45339;-72
2021/12/07 05:46:21;;;;;;;;;5.00;4.00;;;;;8.94;62.38;100965.28;5020227;28;45322;-71
2021/12/07 05:48:47;;;;;;;;;2.50;2.50;;;;;8.87;62.65;100965.47;5020645;28;45419;-72
2021/12/07 05:51:12;;;;;;;;;6.00;4.00;;;;;8.88;62.76;100961.88;5020165;28;45280;-72
2021/12/07 05:53:37;;;;;;;;;8.00;4.00;;;;;8.88;62.63;100961.88;5019668;28;45238;-72
2021/12/07 05:56:04;;;;;;;;;7.00;4.75;;;;;8.91;63.04;100966.25;5020539;28;45310;-72
2021/12/07 05:58:29;;;;;;;;;5.75;4.00;;;;;8.92;62.65;100972.44;5020688;28;46109;-72
2021/12/07 06:00:57;;;;;;;;;4.50;2.75;;;;;8.87;62.99;100980.53;5020370;28;45241;-72
2021/12/07 06:03:25;;;;;;;;;4.75;4.00;;;;;8.85;62.99;100980.59;5017994;28;45618;-72
2021/12/07 06:05:51;;;;;;;;;6.50;5.00;;;;;8.83;62.42;100978.84;5020545;28;45334;-71
2021/12/07 06:08:16;;;;;;;;;8.75;3.75;;;;;8.77;62.76;100976.31;5020614;28;45426;-72
2021/12/07 06:10:42;;;;;;;;;4.00;3.00;;;;;8.68;62.98;100969.41;5020099;28;45409;-71
2021/12/07 06:13:07;;;;;;;;;7.75;6.00;;;;;8.76;62.66;100982.56;5019993;28;45386;-71
2021/12/07 06:15:35;;;;;;;;;4.00;4.00;;;;;8.75;62.84;100964.84;5020169;28;45432;-71
2021/12/07 06:18:01;;;;;;;;;9.50;3.50;;;;;8.73;63.05;100964.88;5019480;28;46623;-71
2021/12/07 06:20:27;;;;;;;;;3.00;3.00;;;;;8.73;62.83;100956.00;5020070;28;45326;-71
2021/12/07 06:22:52;;;;;;;;;6.75;6.25;;;;;8.78;63.11;100956.78;5020287;28;45235;-71
2021/12/07 06:25:17;;;;;;;;;4.75;3.50;;;;;8.76;62.75;100942.66;5018751;28;45277;-71
2021/12/07 06:27:43;;;;;;;;;6.50;4.75;;;;;8.73;63.00;100935.59;5020365;28;45608;-72
2021/12/07 06:30:10;;;;;;;;;7.25;6.00;;;;;8.73;63.02;100934.72;5018991;28;45376;-71
2021/12/07 06:32:36;;;;;;;;;4.00;3.00;;;;;8.69;63.00;100924.13;5019610;28;45423;-71
2021/12/07 06:35:02;;;;;;;;;4.00;4.00;;;;;8.76;63.04;100926.69;5019663;28;45236;-71
2021/12/07 06:37:28;;;;;;;;;7.00;6.50;;;;;8.73;63.19;100922.28;5019804;28;46090;-71
2021/12/07 06:39:53;;;;;;;;;13.75;8.75;;;;;8.70;63.12;100914.34;5019018;28;45562;-71
2021/12/07 06:42:19;;;;;;;;;5.75;5.75;;;;;8.71;63.10;100916.13;5019755;28;45482;-71
2021/12/07 06:44:44;;;;;;;;;12.00;9.25;;;;;8.69;63.08;100924.13;5019640;28;45421;-72
2021/12/07 06:47:09;;;;;;;;;8.25;8.25;;;;;8.66;63.12;100920.66;5019989;28;45291;-72
2021/12/07 06:49:35;;;;;;;;;9.75;7.75;;;;;8.67;63.18;100922.41;5019681;28;45341;-71
2021/12/07 06:52:02;;;;;;;;;7.00;7.00;;;;;8.61;62.97;100919.91;5019238;28;45369;-72
2021/12/07 06:54:28;;;;;;;;;8.25;7.25;;;;;8.56;63.23;100914.66;5019408;28;45581;-71
2021/12/07 06:56:53;;;;;;;;;13.00;8.75;;;;;8.58;63.28;100909.31;5019622;28;46293;-71
2021/12/07 06:59:19;;;;;;;;;11.00;10.25;;;;;8.55;63.80;100907.56;5019680;28;45397;-72
2021/12/07 07:01:45;;;;;;;;;11.50;11.50;;;;;8.51;63.77;100893.47;5018258;28;45248;-72
2021/12/07 07:04:12;;;;;;;;;13.00;13.00;;;;;8.49;63.46;100889.97;5019244;28;45645;-72
2021/12/07 07:06:38;;;;;;;;;16.00;12.00;;;;;8.47;63.70;100890.91;5019429;28;45960;-72
2021/12/07 07:09:04;;;;;;;;;15.00;13.75;;;;;8.41;63.80;100886.56;5018573;28;45475;-71
2021/12/07 07:11:29;;;;;;;;;15.75;15.75;;;;;8.37;63.80;100881.34;5018898;28;45224;-72
2021/12/07 07:13:55;;;;;;;;;13.75;12.50;;;;;8.43;64.21;100881.25;5016560;28;45422;-71
2021/12/07 07:16:20;;;;;;;;;13.50;10.25;;;;;8.43;63.84;100875.94;5019356;28;45457;-72
2021/12/07 07:18:46;;;;;;;;;18.75;15.00;;;;;8.44;64.06;100880.34;5019005;28;45243;-72
2021/12/07 07:21:11;;;;;;;;;18.50;13.50;;;;;8.43;64.28;100876.78;5018699;28;45630;-70
2021/12/07 07:23:38;;;;;;;;;15.50;15.50;;;;;8.46;64.15;100874.06;5017550;28;45486;-69
2021/12/07 07:26:03;;;;;;;;;14.50;14.25;;;;;8.41;63.58;100859.09;5018883;28;45401;-69
2021/12/07 07:28:30;;;;;;;;;16.00;13.75;;;;;8.34;63.99;100861.00;5018918;28;45500;-70
2021/12/07 07:30:57;;;;;;;;;20.00;16.25;;;;;8.38;64.31;100849.38;5031920;28;45775;-72
2021/12/07 07:33:23;;;;;;;;;16.50;13.75;;;;;8.34;64.24;100837.06;5018684;28;45357;-73
2021/12/07 07:35:49;;;;;;;;;14.50;12.75;;;;;8.36;64.32;100845.88;5018766;28;45330;-73
2021/12/07 07:38:15;;;;;;;;;14.25;13.50;;;;;8.33;64.23;100841.50;5022854;28;45397;-73
2021/12/07 07:40:45;;;;;;;;;14.00;12.50;;;;;8.29;64.28;100834.50;5021188;28;45175;-71
2021/12/07 07:43:11;;;;;;;;;13.50;10.25;;;;;8.31;64.37;100837.13;5022286;28;45318;-72
2021/12/07 07:45:36;;;;;;;;;11.50;11.50;;;;;8.25;64.50;100821.31;5022249;28;46209;-73
2021/12/07 07:48:02;;;;;;;;;14.50;12.75;;;;;8.23;64.39;100831.97;5022269;28;45378;-73
2021/12/07 07:50:27;;;;;;;;;16.75;14.25;;;;;8.18;64.45;100823.22;5021254;28;45304;-73
2021/12/07 07:52:52;;;;;;;;;16.75;15.25;;;;;8.10;64.57;100812.75;5021821;28;45485;-73
2021/12/07 07:55:18;;;;;;;;;14.00;13.00;;;;;8.05;64.57;100811.97;5020501;28;45447;-73
2021/12/07 07:57:44;;;;;;;;;16.75;13.75;;;;;8.00;64.76;100824.47;5019550;28;45278;-73
2021/12/07 08:00:15;;;;;;;;;11.75;11.75;;;;;7.92;64.60;100821.97;5022422;28;45194;-73
2021/12/07 08:02:40;;;;;;;;;16.00;13.50;;;;;7.89;64.78;100819.38;5022089;28;45372;-74
2021/12/07 08:05:06;;;;;;;;;14.75;13.00;;;;;7.79;64.92;100809.84;5020977;28;46419;-72
2021/12/07 08:07:31;;;;;;;;;17.50;15.00;;;;;7.78;65.33;100803.66;5020488;28;45415;-71
2021/12/07 08:09:57;;;;;;;;;11.25;11.00;;;;;7.86;65.32;100798.19;5020296;28;45516;-71
2021/12/07 08:12:22;;;;;;;;;7.50;3.00;;;;;7.84;65.14;100797.34;5021954;28;45906;-72
2021/12/07 08:14:47;;;;;;;;;14.25;14.25;;;;;7.79;65.22;100792.09;5021622;28;46428;-73
2021/12/07 08:17:13;;;;;;;;;16.25;14.75;;;;;7.77;65.23;100787.75;5022166;28;45264;-71
2021/12/07 08:19:38;;;;;;;;;22.00;20.50;;;;;7.74;65.51;100788.66;5021704;28;45395;-71
2021/12/07 08:22:04;;;;;;;;;19.25;17.00;;;;;7.78;65.42;100800.09;5011470;28;45554;-71
2021/12/07 08:24:30;;;;;;;;;18.00;17.00;;;;;7.76;65.43;100786.84;5018646;28;46125;-71
2021/12/07 08:26:56;;;;;;;;;16.75;12.00;;;;;7.74;65.93;100786.00;5021870;28;46553;-71
2021/12/07 08:29:21;;;;;;;;;14.50;13.25;;;;;7.70;65.57;100765.75;5018346;28;45527;-75
2021/12/07 08:31:46;;;;;;;;;12.00;11.50;;;;;7.75;65.69;100761.19;5015959;28;45851;-74
2021/12/07 08:34:12;;;;;;;;;17.25;14.25;;;;;7.76;65.59;100757.63;5014869;28;45630;-74
2021/12/07 08:36:37;;;;;;;;;14.75;14.75;;;;;7.85;65.74;100774.28;5019531;28;45327;-74
2021/12/07 08:39:04;;;;;;;;;16.75;15.75;;;;;7.84;65.35;100757.47;5019054;28;45363;-74
2021/12/07 08:41:29;;;;;;;;;18.25;16.75;;;;;7.84;65.75;100754.81;5020352;28;45435;-74
2021/12/07 08:43:56;;;;;;;;;14.50;13.75;;;;;7.93;65.60;100757.25;5019079;28;45514;-74
2021/12/07 08:46:21;;;;;;;;;16.25;13.00;;;;;7.96;65.76;100770.50;5035688;28;45742;-74
2021/12/07 08:48:47;;;;;;;;;18.00;15.75;;;;;7.95;65.63;100743.94;5019192;28;45323;-73
2021/12/07 08:51:15;;;;;;;;;18.75;16.75;;;;;7.97;65.71;100743.00;5019788;28;45975;-74
2021/12/07 08:53:49;;;;;;;;;21.50;20.50;;;;;7.99;65.64;100750.97;5017163;28;45627;-73
2021/12/07 09:01:43;;;;;;;;;18.25;15.25;;;;;7.98;65.56;100730.59;5019566;28;45517;-74
2021/12/07 09:04:10;;;;;;;;;14.50;12.50;;;;;7.94;65.74;100718.28;5019670;28;45370;-74
2021/12/07 09:06:37;;;;;;;;;18.75;18.00;;;;;7.90;65.74;100703.31;5019575;28;45706;-74
2021/12/07 09:09:04;;;;;;;;;12.50;12.00;;;;;7.96;65.84;100695.19;5018296;28;45491;-74
2021/12/07 09:11:29;;;;;;;;;18.50;16.00;;;;;7.92;66.03;100686.44;5019645;28;45863;-74
2021/12/07 09:13:54;;;;;;;;;14.75;10.25;;;;;7.87;65.92;100679.44;5018528;28;46351;-73
2021/12/07 09:16:21;;;;;;;;;13.25;9.50;;;;;7.79;66.26;100674.31;5029590;28;45327;-74
2021/12/07 09:18:47;;;;;;;;;18.50;14.00;;;;;7.85;66.32;100675.94;5020051;28;45487;-74
2021/12/07 09:21:14;;;;;;;;;13.75;12.50;;;;;7.85;66.35;100686.59;5019957;28;45525;-73
2021/12/07 09:23:39;;;;;;;;;9.25;8.00;;;;;7.87;66.24;100672.38;5019068;28;46937;-74
2021/12/07 09:26:06;;;;;;;;;9.75;9.00;;;;;7.86;66.32;100652.00;5019550;28;45365;-74
2021/12/07 09:28:32;;;;;;;;;12.00;10.50;;;;;7.88;66.25;100651.97;5020089;28;45318;-74
2021/12/07 09:30:57;;;;;;;;;12.00;11.00;;;;;7.75;66.34;100623.03;5019391;28;45443;-74
2021/12/07 09:33:28;;;;;;;;;9.75;8.25;;;;;7.83;66.45;100638.78;5017911;28;46399;-74
2021/12/07 09:35:55;;;;;;;;;12.00;12.00;;;;;7.89;66.25;100624.50;5019823;28;45644;-74
2021/12/07 09:38:22;;;;;;;;;12.25;11.25;;;;;7.90;66.20;100645.72;5028764;28;45619;-73
2021/12/07 09:40:48;;;;;;;;;15.25;9.25;;;;;7.84;66.49;100642.34;5018613;28;45863;-74
2021/12/07 09:43:14;;;;;;;;;18.25;16.25;;;;;7.86;66.17;100649.34;5018971;28;45797;-73
2021/12/07 09:45:41;;;;;;;;;8.50;6.50;;;;;7.86;66.09;100632.53;5019302;28;45418;-74
2021/12/07 09:48:11;;;;;;;;;13.50;11.00;;;;;7.83;66.23;100643.22;5019315;28;45474;-74
2021/12/07 09:50:45;;;;;;;;;12.25;12.25;;;;;7.87;66.30;100652.88;5017953;28;45604;-76
2021/12/07 09:53:12;;;;;;;;;7.75;7.75;;;;;7.84;66.70;100632.56;5019064;28;45377;-72
2021/12/07 09:55:39;;;;;;;;;13.00;8.00;;;;;7.85;66.38;100620.16;5018605;28;45707;-72
2021/12/07 09:58:05;;;;;;;;;13.00;10.75;;;;;7.76;66.52;100605.28;5017843;28;45493;-69
2021/12/07 10:00:33;;;;;;;;;9.25;9.25;;;;;7.82;66.69;100626.41;5018026;28;45455;-75
2021/12/07 10:02:58;;;;;;;;;11.75;10.25;;;;;7.85;66.60;100636.09;5018584;28;45424;-78
2021/12/07 10:05:29;;;;;;;;;14.50;12.50;;;;;7.88;66.92;100628.06;5019208;28;45429;-77
2021/12/07 10:07:55;;;;;;;;;17.00;13.00;;;;;7.83;66.95;100629.94;5019363;28;45323;-78
2021/12/07 10:10:26;;;;;;;;;16.75;12.00;;;;;7.85;66.60;100630.78;5019316;28;45371;-78
2021/12/07 10:12:51;;;;;;;;;11.50;11.50;;;;;7.79;66.84;100622.03;5019793;28;45300;-78
2021/12/07 10:15:17;;;;;;;;;11.00;9.50;;;;;7.83;67.28;100608.69;5019621;28;45278;-78
2021/12/07 10:17:43;;;;;;;;;13.00;11.50;;;;;7.87;67.28;100602.38;5015634;28;45353;-78
2021/12/07 10:20:43;;;;;;;;;13.00;11.00;;;;;7.85;67.26;100591.81;5018556;28;45410;-78
2021/12/07 10:23:15;;;;;;;;;13.00;10.50;;;;;7.86;67.64;100592.66;5012839;28;46302;-78
2021/12/07 10:25:46;;;;;;;;;13.50;13.50;;;;;7.85;67.52;100581.19;5018485;28;45721;-77
2021/12/07 10:28:37;;;;;;;;;9.00;9.00;;;;;7.90;67.65;100567.75;5018924;28;45352;-78
2021/12/07 10:31:08;;;;;;;;;11.75;10.75;;;;;7.95;67.53;100548.16;5018408;28;45347;-77
2021/12/07 10:33:38;;;;;;;;;14.50;12.25;;;;;8.01;67.73;100548.91;5018541;28;45496;-78
2021/12/07 10:36:15;;;;;;;;;10.25;10.25;;;;;8.03;67.83;100549.72;5018816;28;45645;-77
2021/12/07 10:38:45;;;;;;;;;12.25;11.50;;;;;8.03;67.93;100525.81;5018224;28;45514;-77
2021/12/07 10:41:11;;;;;;;;;10.50;9.00;;;;;8.04;67.66;100525.78;5018360;28;45422;-77
2021/12/07 10:43:52;;;;;;;;;16.50;13.00;;;;;8.12;67.72;100512.28;5017885;28;46025;-74
2021/12/07 10:46:38;;;;;;;;;13.50;12.00;;;;;8.10;67.90;100493.72;5018816;28;45965;-77
2021/12/07 10:49:09;;;;;;;;;14.00;12.50;;;;;8.15;67.99;100496.22;5016591;28;45497;-77
2021/12/07 10:51:34;;;;;;;;;10.00;10.00;;;;;8.17;67.94;100491.78;5018030;28;45504;-76
2021/12/07 10:54:00;;;;;;;;;13.00;12.00;;;;;8.22;67.99;100489.88;5015725;28;46652;-77
2021/12/07 10:56:35;;;;;;;;;9.00;9.00;;;;;8.22;67.90;100465.03;5015846;28;45459;-78
2021/12/07 10:59:05;;;;;;;;;16.75;12.25;;;;;8.22;67.87;100459.72;5018119;28;45773;-75
2021/12/07 11:01:37;;;;;;;;;12.00;11.00;;;;;8.22;68.18;100442.00;5015589;28;45489;-76
2021/12/07 11:04:24;;;;;;;;;13.50;13.25;;;;;8.23;68.48;100429.56;5017343;28;46220;-76
2021/12/07 11:07:16;;;;;;;;;11.00;10.75;;;;;8.23;68.49;100426.91;5017171;28;45494;-73
2021/12/07 11:09:48;;;;;;;;;11.25;10.00;;;;;8.23;68.47;100417.13;5018791;28;45435;-77
2021/12/07 11:12:17;;;;;;;;;13.00;12.75;;;;;8.26;69.00;100405.56;5023507;28;45328;-77
2021/12/07 11:14:49;;;;;;;;;12.50;10.50;;;;;8.28;68.69;100395.75;5025403;28;46957;-76
2021/12/07 11:17:17;;;;;;;;;14.50;12.00;;;;;8.27;68.46;100378.91;5023590;28;45392;-77
2021/12/07 11:19:43;;;;;;;;;16.50;11.75;;;;;8.23;68.22;100360.44;5026655;28;45438;-77
2021/12/07 11:22:12;;;;;;;;;12.25;12.25;;;;;8.28;68.51;100358.50;5021281;28;45228;-76
2021/12/07 11:24:40;;;;;;;;;14.75;13.00;;;;;8.27;68.64;100343.47;5023895;28;46716;-77
2021/12/07 11:30:27;;;;;;;;;9.50;7.00;;;;;8.31;68.75;100316.75;5022484;28;45462;-76
2021/12/07 11:32:56;;;;;;;;;11.75;7.00;;;;;8.32;68.67;100317.63;5020430;28;45414;-76
2021/12/07 11:35:33;;;;;;;;;10.25;8.75;;;;;8.33;68.46;100308.72;5020113;28;46365;-78
2021/12/07 11:38:03;;;;;;;;;7.00;7.00;;;;;8.30;68.62;100292.84;5020193;28;45759;-78
2021/12/07 11:40:39;;;;;;;;;7.00;6.00;;;;;8.31;68.58;100286.63;5023205;28;45331;-78
2021/12/07 11:43:18;;;;;;;;;13.00;9.75;;;;;8.35;68.96;100277.63;5024143;28;45349;-78
2021/12/07 11:45:44;;;;;;;;;10.75;9.00;;;;;8.35;68.96;100273.19;5021857;28;46552;-78
2021/12/07 11:48:10;;;;;;;;;8.50;7.50;;;;;8.35;68.99;100259.91;5024221;28;46047;-78
2021/12/07 11:50:42;;;;;;;;;9.50;8.00;;;;;8.37;68.96;100261.63;5023771;28;45442;-78
2021/12/07 11:53:37;;;;;;;;;8.75;7.00;;;;;8.43;68.98;100246.38;5012651;28;45335;-78
2021/12/07 11:56:02;;;;;;;;;9.00;8.00;;;;;8.48;68.93;100239.13;5027003;28;46197;-81
2021/12/07 11:58:28;;;;;;;;;7.50;6.00;;;;;8.47;68.92;100217.88;5028281;28;45274;-80
2021/12/07 12:00:57;;;;;;;;;11.25;7.50;;;;;8.51;68.74;100208.91;5026693;28;45683;-79
2021/12/07 12:03:24;;;;;;;;;7.00;6.00;;;;;8.61;69.04;100202.34;5024950;28;45417;-79
2021/12/07 12:05:51;;;;;;;;;6.25;6.25;;;;;8.65;68.80;100187.16;5022553;28;47192;-79
2021/12/07 12:08:19;;;;;;;;;9.00;8.25;;;;;8.68;68.74;100187.91;5024077;28;45400;-79
2021/12/07 12:10:57;;;;;;;;;13.50;10.00;;;;;8.70;68.71;100170.13;5023819;28;45366;-78
2021/12/07 12:13:43;;;;;;;;;7.00;7.00;;;;;8.68;68.66;100171.94;5024475;28;45373;-79
2021/12/07 12:16:36;;;;;;;;;8.75;6.50;;;;;8.75;68.84;100167.28;5023279;28;45426;-75
2021/12/07 12:19:39;;;;;;;;;13.00;7.50;;;;;8.82;68.51;100150.22;5026281;28;45461;-74
2021/12/07 12:22:14;;;;;;;;;7.25;4.00;;;;;8.88;68.68;100151.78;5030916;28;45445;-73
2021/12/07 12:24:59;;;;;;;;;10.75;7.00;;;;;8.87;68.36;100124.31;5021185;28;45365;-74
2021/12/07 12:27:34;;;;;;;;;4.00;2.50;;;;;8.90;68.18;100112.66;5026564;28;47987;-73
2021/12/07 12:30:22;;;;;;;;;7.00;4.00;;;;;8.88;68.29;100114.53;5036469;28;45654;-75
2021/12/07 12:32:54;;;;;;;;;6.75;6.00;;;;;8.91;68.31;100103.78;5018460;28;45463;-74
2021/12/07 12:35:35;;;;;;;;;8.50;5.25;;;;;8.93;68.01;100103.72;5020935;28;45358;-75
2021/12/07 12:38:01;;;;;;;;;6.25;6.25;;;;;8.85;68.58;100067.59;5021124;28;46470;-75
2021/12/07 12:40:30;;;;;;;;;7.00;4.00;;;;;8.98;68.13;100077.78;5017841;28;45268;-74
2021/12/07 12:42:57;;;;;;;;;3.50;3.50;;;;;8.98;67.94;100065.34;5021708;28;45351;-75
2021/12/07 12:45:37;;;;;;;;;5.75;4.00;;;;;8.97;68.05;100050.31;5017540;28;45352;-76
2021/12/07 12:48:18;;;;;;;;;7.75;4.75;;;;;8.97;68.17;100049.44;5010873;28;45897;-76
2021/12/07 12:50:43;;;;;;;;;5.75;4.00;;;;;8.97;68.30;100017.47;5016519;28;45786;-75
2021/12/07 12:53:15;;;;;;;;;8.00;6.00;;;;;9.01;67.85;100008.47;5015992;28;45461;-76
2021/12/07 12:56:02;;;;;;;;;7.25;4.00;;;;;8.97;67.85;99997.09;5013679;28;45782;-76
2021/12/07 12:58:35;;;;;;;;;4.75;3.00;;;;;8.96;67.76;100000.66;5018885;28;46371;-77
2021/12/07 13:01:17;;;;;;;;;6.75;2.50;;;;;8.98;68.12;99977.50;5017119;28;45621;-77
2021/12/07 13:03:43;;;;;;;;;3.75;3.75;;;;;9.00;68.08;99986.28;5005880;28;45541;-76
2021/12/07 13:06:15;;;;;;;;;8.00;6.00;;;;;9.01;67.57;99981.84;5016704;28;45404;-76
2021/12/07 13:09:19;;;;;;;;;4.75;4.75;;;;;9.02;67.75;99979.13;5016844;28;46244;-76
2021/12/07 13:11:50;;;;;;;;;4.00;4.00;;;;;9.02;67.64;99984.47;5013880;28;45653;-75
2021/12/07 13:14:22;;;;;;;;;3.25;3.00;;;;;9.01;67.83;99977.38;5015040;28;45483;-78
2021/12/07 13:17:00;;;;;;;;;4.00;4.00;;;;;9.04;67.95;99963.09;5035761;28;45413;-78
2021/12/07 13:19:28;;;;;;;;;4.00;3.00;;;;;8.99;67.56;99938.47;5016457;28;46379;-78